Terminal Aerodrome Forecast
Issued by NWS

Home | Current Version | Previous Version | Text Only | Print | Product List | Glossary On
Versions: 1 2 3 4 5 6 7 8 9 10 11 12 13 14 15
000
FTUS46 KPDT 250400 AAB
TAFYKM
TAF AMD
KYKM 250423Z 2504/2524 26005KT P6SM -RA BKN025 OVC035
      TEMPO 2504/2508 SCT035 BKN250
     FM250900 28006KT 6SM BR SCT010 BKN070
     FM251800 VRB05KT P6SM -SHRA SCT050 BKN080=

USA.gov is the U.S. government's official web portal to all federal, state and local government web resources and services.